Time;durP1;ratioP1;P1;durP2;ratioP2;P2;SDS_P1;SDS_P2;PMS_P1;PMS_P2;Temp;Humidity;BMP_temperature;BMP_pressure;BME280_temperature;BME280_humidity;BME280_pressure;Samples;Min_cycle;Max_cycle;Signal;HPM_P1;HPM_P2
2023/05/13 00:01:42;;;;;;;107.20;51.40;;;;;;;11.24;83.07;100114.11;105966;1254;62069;-77
2023/05/13 00:04:08;;;;;;;102.80;47.70;;;;;;;11.24;83.23;100117.17;106073;1257;62344;-78
2023/05/13 00:06:35;;;;;;;104.90;47.00;;;;;;;11.15;84.17;100111.92;105980;1254;75587;-77
2023/05/13 00:09:03;;;;;;;90.90;38.90;;;;;;;11.08;85.80;100115.08;106116;1257;66974;-80
2023/05/13 00:11:30;;;;;;;74.50;35.20;;;;;;;10.94;87.10;100114.41;105890;1257;72408;-78
2023/05/13 00:13:57;;;;;;;70.40;33.20;;;;;;;10.85;88.65;100112.38;105135;1266;1003080;-79
2023/05/13 00:16:26;;;;;;;90.40;40.80;;;;;;;10.82;89.71;100110.60;105980;1257;62040;-78
2023/05/13 00:18:54;;;;;;;63.60;31.80;;;;;;;10.79;90.51;100112.52;106024;1254;73451;-78
2023/05/13 00:21:21;;;;;;;61.60;27.90;;;;;;;10.77;90.95;100114.88;106064;1259;69652;-77
2023/05/13 00:23:48;;;;;;;61.60;28.20;;;;;;;10.81;91.15;100114.67;106292;1253;73024;-77
2023/05/13 00:26:15;;;;;;;51.50;26.50;;;;;;;10.71;92.08;100113.48;106284;1257;62041;-77
2023/05/13 00:28:43;;;;;;;71.70;33.90;;;;;;;10.73;93.02;100111.73;106361;1257;62149;-77
2023/05/13 00:31:10;;;;;;;64.30;31.10;;;;;;;10.74;92.22;100111.65;106374;1256;76368;-77
2023/05/13 00:33:37;;;;;;;46.40;28.00;;;;;;;10.77;91.49;100113.26;106317;1254;69801;-78
2023/05/13 00:36:05;;;;;;;56.30;30.50;;;;;;;10.79;92.15;100114.95;106383;1258;74084;-78
2023/05/13 00:38:32;;;;;;;61.70;30.60;;;;;;;10.90;90.71;100119.83;106264;1253;63079;-76
2023/05/13 00:40:58;;;;;;;75.70;33.40;;;;;;;10.84;90.30;100119.30;106171;1257;63115;-76
2023/05/13 00:43:26;;;;;;;65.80;35.40;;;;;;;10.82;90.32;100119.67;106099;1257;75384;-75
2023/05/13 00:45:53;;;;;;;79.50;33.90;;;;;;;10.92;89.29;100120.40;106162;1257;66467;-77
2023/05/13 00:48:20;;;;;;;58.80;28.30;;;;;;;10.93;87.72;100124.39;106152;1257;72603;-78
2023/05/13 00:50:47;;;;;;;53.40;27.20;;;;;;;10.88;88.20;100125.44;106100;1259;62073;-77
2023/05/13 00:53:15;;;;;;;55.50;27.80;;;;;;;10.92;87.39;100123.23;106225;1253;62184;-76
2023/05/13 00:55:45;;;;;;;57.30;27.10;;;;;;;10.79;87.44;100121.67;106245;1257;75391;-77
2023/05/13 00:58:12;;;;;;;41.60;21.60;;;;;;;10.67;89.40;100121.71;106171;1259;68831;-77
2023/05/13 01:01:04;;;;;;;47.10;24.60;;;;;;;10.64;90.65;100119.58;106228;1256;70537;-77
2023/05/13 01:04:01;;;;;;;44.70;22.10;;;;;;;10.73;89.65;100121.36;106158;1253;62053;-77
2023/05/13 01:07:07;;;;;;;40.30;22.50;;;;;;;10.59;90.19;100118.66;105743;1261;62203;-76
2023/05/13 01:09:49;;;;;;;38.50;22.90;;;;;;;10.59;91.98;100118.51;105237;1272;76666;-76
2023/05/13 01:12:20;;;;;;;48.80;22.50;;;;;;;10.50;92.32;100117.90;105318;1270;68693;-76
2023/05/13 01:14:51;;;;;;;47.60;24.40;;;;;;;10.43;93.19;100119.66;105330;1270;71553;-77
2023/05/13 01:17:23;;;;;;;39.90;22.00;;;;;;;10.40;95.10;100118.15;105223;1272;62222;-77
2023/05/13 01:19:56;;;;;;;39.10;21.50;;;;;;;10.32;94.64;100121.05;104938;1266;62088;-77
2023/05/13 01:22:23;;;;;;;40.50;23.00;;;;;;;10.29;93.97;100121.96;105037;1267;75311;-78
2023/05/13 01:24:50;;;;;;;30.30;19.40;;;;;;;10.27;94.43;100122.33;105305;1270;68947;-77
2023/05/13 01:27:18;;;;;;;45.40;23.90;;;;;;;10.22;94.95;100124.64;105346;1270;73438;-77
2023/05/13 01:29:45;;;;;;;45.20;23.30;;;;;;;10.16;94.65;100124.73;105306;1270;62284;-77
2023/05/13 01:32:12;;;;;;;40.90;23.50;;;;;;;10.08;95.32;100127.19;105326;1277;61990;-77
2023/05/13 01:34:39;;;;;;;42.80;24.60;;;;;;;10.02;95.93;100125.58;105388;1267;75659;-77
2023/05/13 01:37:06;;;;;;;39.40;24.50;;;;;;;9.95;96.51;100122.02;105319;1272;68997;-76
2023/05/13 01:39:37;;;;;;;50.90;29.90;;;;;;;9.91;97.44;100121.58;105324;1271;72660;-77
2023/05/13 01:42:05;;;;;;;46.00;28.40;;;;;;;9.91;97.28;100118.27;105385;1271;62066;-76
2023/05/13 01:44:32;;;;;;;62.40;28.90;;;;;;;9.86;97.34;100118.85;105735;1266;62208;-77
2023/05/13 01:46:59;;;;;;;61.30;30.50;;;;;;;9.84;97.74;100114.66;106060;1260;75470;-77
2023/05/13 01:49:26;;;;;;;51.90;29.90;;;;;;;9.85;97.37;100115.02;106159;1254;69607;-76
2023/05/13 01:51:53;;;;;;;60.80;27.60;;;;;;;9.84;97.04;100116.37;106107;1260;72918;-77
2023/05/13 01:54:20;;;;;;;43.30;26.30;;;;;;;9.73;96.96;100118.39;106132;1257;62033;-77
2023/05/13 01:56:51;;;;;;;61.20;25.90;;;;;;;9.63;97.67;100115.70;106129;1252;62078;-76
2023/05/13 01:59:18;;;;;;;49.00;30.20;;;;;;;9.65;98.25;100114.10;106346;1254;74938;-77
2023/05/13 02:01:45;;;;;;;56.70;33.50;;;;;;;9.70;98.28;100110.98;106177;1259;68244;-76
2023/05/13 02:04:12;;;;;;;54.90;33.90;;;;;;;9.81;97.79;100110.10;106398;1256;70975;-75
2023/05/13 02:06:40;;;;;;;56.20;31.90;;;;;;;9.83;98.63;100115.08;106192;1254;62221;-76
2023/05/13 02:09:07;;;;;;;58.90;30.30;;;;;;;9.88;98.40;100113.78;106209;1257;62044;-77
2023/05/13 02:11:38;;;;;;;61.30;32.90;;;;;;;9.96;97.28;100120.88;106268;1257;74335;-77
2023/05/13 02:14:05;;;;;;;64.30;35.80;;;;;;;9.93;97.08;100124.77;106205;1260;67847;-77
2023/05/13 02:16:35;;;;;;;66.20;36.00;;;;;;;9.97;96.98;100127.27;106483;1257;71716;-77
2023/05/13 02:19:05;;;;;;;62.70;37.70;;;;;;;9.84;98.02;100124.37;106379;1254;62058;-77
2023/05/13 02:21:33;;;;;;;67.10;35.20;;;;;;;9.81;98.26;100123.78;105952;1252;62145;-77
2023/05/13 02:24:00;;;;;;;70.30;36.50;;;;;;;9.88;97.58;100127.82;106097;1254;76485;-77
2023/05/13 02:26:28;;;;;;;94.70;44.30;;;;;;;9.89;96.98;100128.33;107361;1254;68875;-76
2023/05/13 02:28:57;;;;;;;127.70;57.10;;;;;;;9.85;97.16;100130.67;107341;1263;70425;-78
2023/05/13 02:31:24;;;;;;;177.20;72.90;;;;;;;9.86;97.51;100130.38;106306;1257;62070;-77
2023/05/13 02:33:51;;;;;;;163.00;68.40;;;;;;;9.95;96.94;100136.13;106374;1254;62109;-77
2023/05/13 02:36:18;;;;;;;148.70;61.50;;;;;;;9.99;96.13;100134.35;106111;1254;74820;-76
2023/05/13 02:38:45;;;;;;;136.10;56.30;;;;;;;10.00;95.46;100138.88;106292;1254;68659;-77
2023/05/13 02:41:13;;;;;;;116.40;53.60;;;;;;;9.97;96.15;100140.52;106078;1257;72327;-76
2023/05/13 02:43:41;;;;;;;82.30;45.20;;;;;;;10.16;94.31;100143.02;106241;1254;62116;-77
2023/05/13 02:46:08;;;;;;;101.20;51.00;;;;;;;10.31;93.33;100146.02;106348;1254;62059;-77
2023/05/13 02:48:36;;;;;;;;;;;;;;;10.29;94.38;100142.77;106241;1257;76408;-75
2023/05/13 02:51:03;;;;;;;81.30;41.30;;;;;;;10.40;93.85;100149.70;105865;1260;67273;-79
2023/05/13 02:53:31;;;;;;;73.50;41.00;;;;;;;10.50;93.17;100149.91;106215;1254;72749;-78
2023/05/13 02:56:01;;;;;;;80.10;41.90;;;;;;;10.61;92.63;100145.86;106114;1257;62147;-76
2023/05/13 02:58:28;;;;;;;97.30;46.80;;;;;;;10.75;91.81;100150.49;106075;1254;62143;-77
2023/05/13 03:00:55;;;;;;;88.90;46.90;;;;;;;10.99;90.15;100154.73;105871;1259;73582;-78
2023/05/13 03:03:23;;;;;;;82.80;43.30;;;;;;;11.10;89.84;100154.87;106096;1253;68664;-76
2023/05/13 03:05:51;;;;;;;88.70;43.60;;;;;;;11.29;88.60;100153.31;106146;1257;73425;-76
2023/05/13 03:08:18;;;;;;;108.30;44.00;;;;;;;11.45;87.84;100156.30;106265;1257;62152;-78
2023/05/13 03:10:44;;;;;;;85.50;42.80;;;;;;;11.69;87.18;100157.81;106151;1254;62123;-76
2023/05/13 03:13:11;;;;;;;85.40;42.50;;;;;;;11.88;86.43;100159.11;106142;1258;75594;-76
2023/05/13 03:15:38;;;;;;;77.80;41.50;;;;;;;12.06;85.49;100163.04;106380;1257;67510;-77
2023/05/13 03:18:06;;;;;;;83.60;39.70;;;;;;;12.17;85.45;100158.63;106042;1254;72523;-76
2023/05/13 03:20:33;;;;;;;59.90;34.50;;;;;;;12.40;85.29;100159.66;106212;1254;62930;-76
2023/05/13 03:23:01;;;;;;;72.70;38.00;;;;;;;12.69;82.92;100161.98;105989;1259;61963;-75
2023/05/13 03:25:30;;;;;;;77.20;35.90;;;;;;;13.02;80.31;100160.16;106031;1256;75125;-77
2023/05/13 03:27:57;;;;;;;64.30;35.60;;;;;;;13.29;78.90;100166.64;106207;1254;68768;-77
2023/05/13 03:30:27;;;;;;;75.90;39.00;;;;;;;13.54;77.48;100169.38;106270;1253;72903;-78
2023/05/13 03:33:02;;;;;;;76.50;38.30;;;;;;;13.83;75.68;100171.95;105985;1259;62107;-79
2023/05/13 03:35:29;;;;;;;77.50;37.70;;;;;;;14.15;73.39;100174.08;105907;1253;62034;-82
2023/05/13 03:37:56;;;;;;;83.60;40.90;;;;;;;14.48;71.18;100174.04;106056;1254;76374;-80
2023/05/13 03:40:24;;;;;;;81.70;37.60;;;;;;;14.72;68.20;100175.38;105997;1254;68116;-78
2023/05/13 03:42:51;;;;;;;74.00;39.90;;;;;;;14.84;67.61;100179.02;106050;1256;73748;-78
2023/05/13 03:45:18;;;;;;;73.20;38.20;;;;;;;15.13;67.67;100180.63;106118;1253;62733;-80
2023/05/13 03:47:48;;;;;;;72.10;38.50;;;;;;;15.54;65.62;100185.59;106193;1256;62013;-78
2023/05/13 03:50:16;;;;;;;50.30;26.90;;;;;;;15.86;63.05;100187.27;106188;1254;74495;-78
2023/05/13 03:52:43;;;;;;;43.20;22.00;;;;;;;16.18;60.56;100189.36;106140;1257;68824;-78
2023/05/13 03:55:13;;;;;;;27.50;13.80;;;;;;;16.55;56.15;100194.59;106098;1253;72772;-78
2023/05/13 03:57:44;;;;;;;20.50;10.90;;;;;;;16.73;51.11;100196.46;106208;1254;62063;-79
2023/05/13 04:00:12;;;;;;;12.70;8.10;;;;;;;16.87;49.29;100196.31;106210;1254;62246;-78
2023/05/13 04:02:42;;;;;;;11.30;7.10;;;;;;;16.82;47.81;100202.67;106213;1256;76472;-79
2023/05/13 04:05:12;;;;;;;13.40;7.20;;;;;;;16.90;47.85;100205.17;106226;1257;67896;-79
2023/05/13 04:07:40;;;;;;;17.80;8.80;;;;;;;17.18;47.39;100206.48;106276;1253;72846;-79
2023/05/13 04:10:07;;;;;;;12.00;8.00;;;;;;;17.34;46.99;100212.17;106238;1253;62088;-77
2023/05/13 04:12:34;;;;;;;16.50;8.40;;;;;;;17.42;46.62;100214.02;106054;1253;62640;-77
2023/05/13 04:15:01;;;;;;;13.90;8.40;;;;;;;17.29;46.29;100214.98;106082;1256;75484;-78
2023/05/13 04:17:29;;;;;;;17.60;8.70;;;;;;;17.54;46.46;100220.87;106211;1253;69426;-78
2023/05/13 04:19:56;;;;;;;15.00;8.50;;;;;;;17.93;45.78;100221.80;106173;1253;72016;-78
2023/05/13 04:22:23;;;;;;;11.50;7.70;;;;;;;17.96;44.66;100223.73;106226;1254;62581;-77
2023/05/13 04:24:55;;;;;;;12.10;7.50;;;;;;;18.03;44.64;100227.19;107105;1253;62145;-79
2023/05/13 04:27:22;;;;;;;13.20;8.30;;;;;;;18.35;44.33;100229.36;106100;1257;75554;-77
2023/05/13 04:29:52;;;;;;;15.40;8.30;;;;;;;18.57;43.60;100230.67;106049;1254;69746;-78
2023/05/13 04:32:22;;;;;;;10.60;7.80;;;;;;;18.52;43.32;100231.34;106008;1255;71440;-79
2023/05/13 04:34:51;;;;;;;12.90;7.10;;;;;;;18.52;43.33;100235.20;105939;1253;62117;-79
2023/05/13 04:37:18;;;;;;;13.70;7.80;;;;;;;18.74;42.72;100237.73;105994;1254;63103;-78
2023/05/13 04:39:47;;;;;;;13.90;7.40;;;;;;;18.87;42.56;100238.45;106277;1254;76404;-78
2023/05/13 04:42:15;;;;;;;14.30;6.90;;;;;;;19.09;42.15;100240.52;106339;1254;67205;-79
2023/05/13 04:44:42;;;;;;;12.10;6.40;;;;;;;19.33;41.77;100237.66;106929;1254;73437;-75
2023/05/13 04:47:09;;;;;;;9.90;6.50;;;;;;;19.58;41.69;100243.34;106398;1254;62066;-78
2023/05/13 04:49:36;;;;;;;12.20;6.80;;;;;;;19.92;40.99;100248.85;105951;1254;62029;-78
2023/05/13 04:52:05;;;;;;;12.20;7.20;;;;;;;20.40;40.73;100254.08;105900;1254;75575;-78
2023/05/13 04:54:34;;;;;;;9.10;6.90;;;;;;;20.63;40.15;100250.31;105978;1258;69114;-77
2023/05/13 04:57:01;;;;;;;10.10;6.00;;;;;;;20.79;40.17;100250.10;105873;1254;73657;-77
2023/05/13 04:59:29;;;;;;;7.60;5.30;;;;;;;20.99;39.22;100251.36;105929;1254;62078;-78
2023/05/13 05:01:56;;;;;;;8.60;5.30;;;;;;;21.11;39.20;100252.97;105806;1254;62143;-79
2023/05/13 05:04:23;;;;;;;9.50;5.60;;;;;;;21.18;38.81;100251.51;105907;1254;76646;-78
2023/05/13 05:06:50;;;;;;;7.10;4.80;;;;;;;21.27;38.61;100250.80;105898;1255;68265;-79
2023/05/13 05:09:17;;;;;;;6.90;5.20;;;;;;;21.26;38.43;100250.01;105969;1253;73896;-78
2023/05/13 05:11:48;;;;;;;12.00;5.80;;;;;;;21.44;38.42;100250.72;106109;1256;63057;-79
2023/05/13 05:14:17;;;;;;;9.90;5.00;;;;;;;21.79;37.84;100250.84;106226;1253;61945;-79
2023/05/13 05:16:44;;;;;;;7.00;4.90;;;;;;;22.01;37.32;100250.10;106210;1257;76489;-78
2023/05/13 05:19:11;;;;;;;8.00;5.00;;;;;;;22.06;37.46;100252.73;106437;1256;67874;-80
2023/05/13 05:21:38;;;;;;;14.50;5.50;;;;;;;22.06;37.92;100254.79;106409;1253;73591;-80
2023/05/13 05:24:06;;;;;;;15.70;6.10;;;;;;;22.21;38.02;100249.11;106066;1253;62029;-79
2023/05/13 05:26:33;;;;;;;15.40;6.30;;;;;;;22.52;37.61;100257.79;105900;1254;62143;-78
2023/05/13 05:29:01;;;;;;;16.70;6.10;;;;;;;23.11;37.30;100255.88;107168;1253;76613;-78
2023/05/13 05:31:31;;;;;;;10.70;5.70;;;;;;;23.68;36.63;100257.04;107723;1253;68462;-76
2023/05/13 05:34:01;;;;;;;13.30;6.10;;;;;;;24.15;35.52;100263.47;106112;1257;71560;-78
2023/05/13 05:36:28;;;;;;;10.50;6.20;;;;;;;24.38;35.63;100267.02;106077;1253;62093;-79
2023/05/13 05:38:55;;;;;;;12.20;6.40;;;;;;;24.32;35.67;100263.16;106115;1260;61964;-77
2023/05/13 05:41:26;;;;;;;15.50;5.50;;;;;;;24.27;35.61;100266.09;106062;1253;76206;-77
2023/05/13 05:43:53;;;;;;;12.20;6.50;;;;;;;24.38;35.22;100267.09;106086;1257;68819;-78
2023/05/13 05:46:21;;;;;;;12.90;6.00;;;;;;;24.53;34.41;100264.68;106004;1254;70764;-77
2023/05/13 05:48:49;;;;;;;11.40;6.10;;;;;;;24.69;34.09;100264.34;106330;1254;63016;-78
2023/05/13 05:51:16;;;;;;;9.70;5.30;;;;;;;24.81;33.58;100265.08;105935;1254;62106;-82
2023/05/13 05:53:43;;;;;;;8.20;5.10;;;;;;;24.92;33.44;100268.63;106816;1254;75010;-78
2023/05/13 05:56:12;;;;;;;8.80;5.20;;;;;;;24.89;33.50;100268.36;106438;1254;67865;-78
2023/05/13 05:58:38;;;;;;;9.70;5.40;;;;;;;24.98;33.35;100269.69;106084;1258;71666;-78
2023/05/13 06:01:05;;;;;;;8.60;5.10;;;;;;;25.33;33.14;100271.00;106060;1258;62382;-77
2023/05/13 06:03:33;;;;;;;10.40;4.80;;;;;;;25.76;32.62;100271.64;105844;1254;62017;-78
2023/05/13 06:06:00;;;;;;;7.60;5.60;;;;;;;25.65;31.87;100274.91;105933;1253;74488;-76
2023/05/13 06:08:29;;;;;;;8.20;5.30;;;;;;;25.48;32.83;100277.20;106063;1253;69574;-78
2023/05/13 06:10:57;;;;;;;13.60;5.10;;;;;;;25.72;32.90;100278.87;106140;1256;72145;-77
2023/05/13 06:13:23;;;;;;;16.40;8.40;;;;;;;26.08;32.33;100280.01;106006;1253;63240;-78
2023/05/13 06:15:50;;;;;;;8.70;5.90;;;;;;;26.15;32.06;100279.29;105983;1253;62063;-77
2023/05/13 06:18:17;;;;;;;9.30;4.70;;;;;;;26.51;31.56;100285.92;105970;1253;73360;-79
2023/05/13 06:20:44;;;;;;;8.80;4.40;;;;;;;26.87;30.97;100292.76;106037;1253;69330;-77
2023/05/13 06:23:13;;;;;;;6.40;4.30;;;;;;;26.57;30.40;100289.11;106065;1253;72594;-78
2023/05/13 06:25:40;;;;;;;7.20;4.10;;;;;;;26.52;30.59;100285.31;106043;1256;62427;-78
2023/05/13 06:28:09;;;;;;;8.00;4.10;;;;;;;26.64;30.64;100285.83;105993;1260;62198;-77
2023/05/13 06:30:41;;;;;;;5.10;3.80;;;;;;;26.86;30.34;100287.22;106041;1253;76327;-76
2023/05/13 06:33:11;;;;;;;4.40;3.90;;;;;;;26.67;29.20;100288.13;106013;1257;67523;-78
2023/05/13 06:35:39;;;;;;;5.20;3.70;;;;;;;26.64;29.22;100289.04;106184;1254;71668;-76
2023/05/13 06:38:06;;;;;;;;;;;;;;;26.76;29.19;100289.18;106338;1257;62015;-77
2023/05/13 06:40:34;;;;;;;14.40;5.00;;;;;;;26.89;29.89;100286.05;106276;1254;62024;-77
2023/05/13 06:43:01;;;;;;;7.20;3.50;;;;;;;27.20;28.90;100290.72;106256;1254;76039;-78
2023/05/13 06:45:31;;;;;;;5.20;3.40;;;;;;;27.27;28.82;100293.04;106056;1253;69690;-79
2023/05/13 06:47:59;;;;;;;;;;;;;;;27.26;28.20;100290.97;106054;1253;70788;-75
2023/05/13 06:50:26;;;;;;;6.20;3.20;;;;;;;27.20;27.93;100288.90;105807;1253;63191;-81
2023/05/13 06:52:53;;;;;;;14.70;3.80;;;;;;;27.35;28.00;100286.96;105923;1253;62147;-79
2023/05/13 06:55:20;;;;;;;4.80;3.10;;;;;;;27.15;27.69;100285.04;105896;1253;75849;-79
2023/05/13 06:57:47;;;;;;;5.10;2.80;;;;;;;26.93;27.85;100281.76;105854;1253;66804;-80
2023/05/13 07:00:14;;;;;;;3.40;3.00;;;;;;;27.21;27.22;100282.61;105919;1253;72960;-76
2023/05/13 07:02:41;;;;;;;4.80;3.50;;;;;;;27.47;27.13;100284.02;105892;1253;62128;-77
2023/05/13 07:05:09;;;;;;;6.10;3.40;;;;;;;27.66;26.55;100287.08;105914;1253;62072;-77
2023/05/13 07:07:38;;;;;;;8.50;3.30;;;;;;;28.02;26.35;100290.76;105978;1257;76587;-77
2023/05/13 07:10:06;;;;;;;4.80;3.40;;;;;;;28.33;26.31;100295.98;105870;1260;69750;-78
2023/05/13 07:12:33;;;;;;;8.80;3.30;;;;;;;28.10;26.62;100290.42;105899;1254;73130;-78
2023/05/13 07:15:00;;;;;;;4.30;2.70;;;;;;;28.09;26.56;100293.92;106137;1253;62008;-78
2023/05/13 07:17:27;;;;;;;6.00;3.20;;;;;;;28.38;26.49;100288.77;106032;1254;62145;-77
2023/05/13 07:19:54;;;;;;;3.40;2.80;;;;;;;28.48;26.35;100285.31;105950;1253;75294;-78
2023/05/13 07:22:22;;;;;;;;;;;;;;;28.20;26.05;100290.13;105919;1257;69369;-78
2023/05/13 07:24:48;;;;;;;6.00;2.80;;;;;;;28.60;25.53;100288.08;106192;1253;72504;-77
2023/05/13 07:27:16;;;;;;;5.40;3.50;;;;;;;28.61;25.53;100284.30;105994;1253;63133;-77
2023/05/13 07:29:43;;;;;;;7.10;2.60;;;;;;;28.37;25.69;100288.76;105927;1254;62077;-78
2023/05/13 07:32:09;;;;;;;5.60;2.20;;;;;;;28.48;25.11;100285.95;106006;1253;75837;-77
2023/05/13 07:34:36;;;;;;;4.30;2.50;;;;;;;28.45;24.84;100285.01;106119;1253;68790;-78
2023/05/13 07:37:04;;;;;;;3.30;2.30;;;;;;;28.56;23.79;100287.31;106260;1254;73638;-77
2023/05/13 07:39:31;;;;;;;6.90;2.40;;;;;;;28.82;23.58;100285.98;106199;1253;62033;-79
2023/05/13 07:41:58;;;;;;;6.00;2.50;;;;;;;29.10;23.50;100287.65;106171;1252;62381;-78
2023/05/13 07:44:25;;;;;;;4.10;2.70;;;;;;;28.84;23.59;100285.31;106103;1256;76427;-77
2023/05/13 07:46:52;;;;;;;3.20;2.40;;;;;;;28.70;23.71;100283.26;106121;1253;68509;-77
2023/05/13 07:49:20;;;;;;;3.40;2.20;;;;;;;28.98;23.45;100286.52;106005;1253;72803;-78
2023/05/13 07:51:46;;;;;;;2.70;2.30;;;;;;;29.21;22.47;100286.71;106137;1256;63097;-76
2023/05/13 07:54:13;;;;;;;3.00;2.10;;;;;;;29.31;22.06;100288.58;106215;1254;61974;-78
2023/05/13 07:56:42;;;;;;;3.00;1.90;;;;;;;29.36;22.20;100285.85;105939;1253;76523;-77
2023/05/13 07:59:30;;;;;;;5.90;2.30;;;;;;;29.71;22.38;100288.85;106181;1256;68768;-77
2023/05/13 08:01:57;;;;;;;6.40;2.40;;;;;;;30.25;21.78;100288.77;105808;1257;71463;-77
2023/05/13 08:04:24;;;;;;;5.90;2.30;;;;;;;30.23;21.60;100292.14;105838;1257;62242;-77
2023/05/13 08:06:50;;;;;;;6.30;2.40;;;;;;;30.55;21.22;100292.36;105817;1257;61959;-78
2023/05/13 08:09:17;;;;;;;4.90;2.10;;;;;;;30.65;20.71;100293.94;105867;1256;76473;-78
2023/05/13 08:11:44;;;;;;;7.40;1.90;;;;;;;30.63;20.81;100291.78;105877;1260;68212;-78
2023/05/13 08:14:11;;;;;;;2.50;2.10;;;;;;;30.58;21.05;100289.56;105820;1256;73781;-75
2023/05/13 08:16:38;;;;;;;2.70;2.00;;;;;;;27.91;22.75;100270.67;105856;1257;62418;-78
2023/05/13 08:19:04;;;;;;;13.40;3.10;;;;;;;24.84;25.88;100253.96;105808;1260;62188;-78
2023/05/13 08:21:31;;;;;;;4.80;3.10;;;;;;;24.33;26.14;100251.52;105894;1256;74675;-76
2023/05/13 08:23:58;;;;;;;3.60;2.20;;;;;;;24.26;26.63;100250.04;105874;1257;68126;-76
2023/05/13 08:26:25;;;;;;;3.00;2.20;;;;;;;24.34;26.38;100255.23;105815;1257;73392;-78
2023/05/13 08:28:52;;;;;;;2.80;1.70;;;;;;;24.21;26.61;100252.90;105807;1256;62200;-77
2023/05/13 08:31:23;;;;;;;5.00;1.70;;;;;;;25.34;25.03;100257.92;105425;1257;62146;-79
2023/05/13 08:33:52;;;;;;;4.30;2.20;;;;;;;26.50;24.15;100260.71;106024;1254;76398;-76
2023/05/13 08:36:20;;;;;;;3.00;2.10;;;;;;;27.23;23.21;100259.00;107886;1253;68121;-77
2023/05/13 08:38:47;;;;;;;6.90;2.80;;;;;;;27.22;23.61;100259.77;106940;1253;71018;-79
2023/05/13 08:41:15;;;;;;;7.00;3.50;;;;;;;27.49;23.02;100256.73;106393;1253;62065;-74
2023/05/13 08:43:42;;;;;;;3.00;2.20;;;;;;;27.76;22.57;100248.59;106296;1253;62032;-77
2023/05/13 08:46:10;;;;;;;9.80;3.50;;;;;;;27.96;22.39;100256.10;106319;1258;76321;-77
2023/05/13 08:48:38;;;;;;;15.90;5.10;;;;;;;28.15;22.04;100254.12;106434;1257;67723;-74
2023/05/13 08:51:06;;;;;;;3.50;1.50;;;;;;;28.00;22.46;100252.23;107411;1255;72728;-76
2023/05/13 08:53:34;;;;;;;5.50;2.40;;;;;;;28.15;22.25;100250.42;106009;1253;62074;-75
2023/05/13 08:56:01;;;;;;;6.20;2.00;;;;;;;27.88;22.22;100253.02;105872;1253;62067;-78
2023/05/13 08:58:28;;;;;;;5.10;2.10;;;;;;;27.33;22.68;100245.16;106675;1262;74051;-79
2023/05/13 09:00:55;;;;;;;5.00;2.20;;;;;;;27.32;22.91;100244.30;105988;1257;67474;-77
2023/05/13 09:03:22;;;;;;;5.60;2.50;;;;;;;27.38;22.79;100235.63;105867;1258;111729;-77
2023/05/13 09:05:49;;;;;;;11.00;3.20;;;;;;;27.61;22.57;100239.36;105906;1253;62086;-78
2023/05/13 09:08:16;;;;;;;10.40;3.00;;;;;;;26.24;23.52;100232.84;106123;1256;64198;-77
2023/05/13 09:10:43;;;;;;;10.20;3.60;;;;;;;23.00;26.61;100217.90;105929;1257;76312;-74
2023/05/13 09:13:13;;;;;;;10.20;2.70;;;;;;;22.03;27.24;100212.67;105909;1254;69879;-77
2023/05/13 09:15:41;;;;;;;6.00;2.00;;;;;;;21.99;27.49;100211.50;106208;1254;73818;-77
2023/05/13 09:18:09;;;;;;;3.20;2.00;;;;;;;24.42;25.34;100220.67;106182;1254;62050;-77
2023/05/13 09:20:36;;;;;;;4.80;3.20;;;;;;;24.92;24.93;100220.63;106228;1254;62155;-78
2023/05/13 09:23:09;;;;;;;13.40;4.00;;;;;;;25.28;24.67;100218.54;106301;1256;73193;-76
2023/05/13 09:25:37;;;;;;;8.50;2.80;;;;;;;24.22;25.34;100212.77;106314;1254;68455;-78
2023/05/13 09:28:05;;;;;;;6.30;2.90;;;;;;;22.13;27.84;100195.14;106194;1257;71974;-77
2023/05/13 09:30:32;;;;;;;4.80;2.60;;;;;;;22.60;27.24;100193.66;106247;1254;62029;-77
2023/05/13 09:33:08;;;;;;;29.30;4.40;;;;;;;22.97;26.36;100192.29;106115;1253;62054;-81
2023/05/13 09:35:37;;;;;;;8.90;2.90;;;;;;;23.02;26.24;100190.62;106238;1253;73519;-79
2023/05/13 09:38:18;;;;;;;3.00;1.80;;;;;;;23.43;26.37;100188.86;106272;1254;68448;-79
2023/05/13 09:40:51;;;;;;;2.70;1.50;;;;;;;23.89;25.55;100190.63;106272;1254;72676;-76
2023/05/13 09:43:22;;;;;;;9.20;1.80;;;;;;;24.02;25.12;100191.55;106153;1256;62047;-79
2023/05/13 09:45:53;;;;;;;17.90;2.20;;;;;;;24.31;24.90;100185.56;106180;1252;62047;-76
2023/05/13 09:48:24;;;;;;;1.60;1.50;;;;;;;24.23;24.21;100186.69;106154;1256;75804;-78
2023/05/13 09:50:52;;;;;;;2.60;1.50;;;;;;;23.96;24.39;100180.96;105912;1259;68185;-77
2023/05/13 09:53:20;;;;;;;;;;;;;;;24.02;24.82;100178.48;106228;1253;73661;-80
2023/05/13 09:55:51;;;;;;;5.30;1.70;;;;;;;26.14;23.31;100184.58;106187;1254;62131;-78
2023/05/13 09:58:21;;;;;;;27.70;3.60;;;;;;;26.31;23.13;100181.00;106174;1254;62396;-78
2023/05/13 10:00:48;;;;;;;5.00;1.70;;;;;;;24.63;23.85;100179.59;106149;1254;75676;-78
2023/05/13 10:03:15;;;;;;;2.20;1.70;;;;;;;23.52;24.98;100167.90;106179;1254;69469;-78
2023/05/13 10:05:43;;;;;;;2.60;2.00;;;;;;;23.25;25.23;100163.20;106243;1254;73396;-77
2023/05/13 10:08:10;;;;;;;;;;;;;;;23.59;25.20;100165.46;105886;1251;62197;-76
2023/05/13 10:10:37;;;;;;;;;;;;;;;25.31;23.65;100173.43;105879;1254;63157;-78
2023/05/13 10:13:07;;;;;;;8.70;2.20;;;;;;;25.65;22.98;100174.85;105903;1256;75004;-80
2023/05/13 10:15:34;;;;;;;1.80;1.60;;;;;;;25.96;22.49;100174.98;105831;1256;67870;-81
2023/05/13 10:18:01;;;;;;;7.70;3.00;;;;;;;25.71;23.57;100171.45;105856;1253;72437;-79
2023/05/13 10:20:28;;;;;;;5.80;2.30;;;;;;;24.02;25.41;100166.92;105808;1253;62147;-78
2023/05/13 10:22:55;;;;;;;9.90;1.50;;;;;;;23.73;25.24;100168.21;105834;1253;62116;-77
2023/05/13 10:25:22;;;;;;;2.90;2.10;;;;;;;23.30;25.24;100164.25;105876;1256;75494;-78
2023/05/13 10:27:49;;;;;;;2.90;1.80;;;;;;;24.09;24.38;100170.45;105878;1254;69286;-83
2023/05/13 10:30:16;;;;;;;2.70;1.80;;;;;;;24.26;24.63;100166.67;106681;1252;73796;-76
2023/05/13 10:32:42;;;;;;;3.40;1.60;;;;;;;23.91;24.65;100162.45;106213;1256;63171;-78
2023/05/13 10:35:11;;;;;;;1.80;1.60;;;;;;;24.75;23.62;100166.48;105895;1256;62009;-77
2023/05/13 10:38:00;;;;;;;2.10;1.70;;;;;;;25.00;23.47;100162.65;106143;1254;73673;-77
2023/05/13 10:40:37;;;;;;;6.10;2.10;;;;;;;25.26;23.46;100163.83;106216;1254;69402;-78
2023/05/13 10:43:14;;;;;;;8.60;2.20;;;;;;;25.62;23.62;100162.37;106124;1256;72709;-77
2023/05/13 10:45:48;;;;;;;5.70;2.00;;;;;;;25.64;23.10;100163.44;106142;1254;62100;-77
2023/05/13 10:48:16;;;;;;;5.80;1.70;;;;;;;25.41;23.77;100160.70;106209;1256;62059;-80
2023/05/13 10:50:52;;;;;;;3.40;1.70;;;;;;;23.99;25.88;100153.11;106138;1252;76260;-77
2023/05/13 10:53:22;;;;;;;3.90;2.30;;;;;;;23.29;27.08;100147.31;105959;1259;67117;-77
2023/05/13 10:55:56;;;;;;;6.40;1.60;;;;;;;22.79;26.89;100145.05;106190;1254;73681;-78
2023/05/13 10:58:30;;;;;;;4.50;1.80;;;;;;;22.52;27.35;100135.79;106156;1256;62133;-79
2023/05/13 11:01:24;;;;;;;5.90;3.00;;;;;;;22.51;27.19;100137.19;106176;1254;62143;-79
2023/05/13 11:03:58;;;;;;;4.00;3.10;;;;;;;22.21;27.96;100133.84;105979;1254;75274;-79
2023/05/13 11:06:32;;;;;;;13.30;6.90;;;;;;;22.22;27.58;100132.38;105888;1254;68099;-77
2023/05/13 11:08:59;;;;;;;5.00;2.00;;;;;;;22.24;27.71;100132.60;106118;1253;72760;-79
2023/05/13 11:11:32;;;;;;;5.30;2.20;;;;;;;22.18;27.23;100131.02;105947;1253;62736;-79
2023/05/13 11:13:59;;;;;;;2.50;1.90;;;;;;;22.43;27.62;100130.67;105967;1253;61806;-78
2023/05/13 11:16:25;;;;;;;3.10;1.80;;;;;;;23.19;27.50;100128.89;105993;1256;75862;-79
2023/05/13 11:18:52;;;;;;;2.40;2.00;;;;;;;23.77;26.07;100133.71;106127;1253;68231;-79